createdAt,value
2024-03-09T00:03:38.269Z,30.57046979865772
2024-03-09T00:11:14.064Z,31.416107382550337
2024-03-09T00:16:22.191Z,33.22147651006711
2024-03-09T00:19:41.964Z,31.953020134228186
2024-03-09T00:23:04.634Z,32.738255033557046
2024-03-09T00:26:27.267Z,32.45637583892618
2024-03-09T00:29:47.261Z,32.34228187919463
2024-03-09T00:38:55.985Z,33.23489932885906
2024-03-09T00:42:15.720Z,32.50335570469799
2024-03-09T00:45:36.437Z,33.77181208053691
2024-03-09T00:50:14.570Z,33.13422818791946
2024-03-09T00:53:35.227Z,34.013422818791945
2024-03-09T00:58:26.089Z,33.624161073825505
2024-03-09T01:01:46.525Z,34.25503355704698
2024-03-09T01:07:47.518Z,34.67785234899329
2024-03-09T01:11:07.714Z,34.422818791946305
2024-03-09T01:14:28.531Z,33.79865771812081
2024-03-09T01:17:49.750Z,35.147651006711406
2024-03-09T01:25:26.064Z,34.30201342281879
2024-03-09T01:28:46.411Z,35.288590604026844
2024-03-09T01:32:05.941Z,35.51006711409396
2024-03-09T01:36:11.214Z,34.68456375838926
2024-03-09T01:46:53.807Z,35.91275167785235
2024-03-09T01:58:46.065Z,35.261744966442954
2024-03-09T02:02:05.511Z,35.986577181208055
2024-03-09T02:05:44.653Z,35.986577181208055
2024-03-09T02:09:04.228Z,36.51677852348993
2024-03-09T02:13:59.838Z,35.651006711409394
2024-03-09T02:17:20.220Z,36.30201342281879
2024-03-09T02:20:40.115Z,35.54362416107382
2024-03-09T02:24:00.681Z,36.060402684563755
2024-03-09T02:27:20.965Z,35.79194630872483
2024-03-09T02:30:41.408Z,36.557046979865774
2024-03-09T02:34:01.680Z,36.38255033557047
2024-03-09T02:37:22.681Z,36.10738255033557
2024-03-09T02:40:44.736Z,36.557046979865774
2024-03-09T02:45:46.068Z,37.34228187919463
2024-03-09T02:49:05.984Z,36.241610738255034
2024-03-09T02:52:26.706Z,35.77181208053691
2024-03-09T02:55:46.762Z,35.281879194630875
2024-03-09T02:59:07.173Z,36.644295302013425
2024-03-09T03:03:11.135Z,37.47651006711409
2024-03-09T03:06:31.278Z,37.7248322147651
2024-03-09T03:09:59.242Z,36.67785234899329
2024-03-09T03:14:10.866Z,36.75167785234899
2024-03-09T03:18:35.199Z,37.04026845637584
2024-03-09T03:21:54.727Z,37.214765100671144
2024-03-09T03:25:14.382Z,36.65771812080537
2024-03-09T03:28:35.719Z,38.04697986577181
2024-03-09T03:34:29.501Z,37.14093959731544
2024-03-09T03:41:02.938Z,37.77181208053691
2024-03-09T03:44:23.494Z,37.70469798657718
2024-03-09T03:47:43.371Z,36.61073825503356
2024-03-09T03:53:11.616Z,38.369127516778526
2024-03-09T03:56:48.166Z,38.758389261744966
2024-03-09T04:00:07.714Z,37.919463087248324
2024-03-09T04:03:28.698Z,36.84563758389262
2024-03-09T04:06:48.350Z,38.308724832214764
2024-03-09T04:21:56.168Z,38.77852348993289
2024-03-09T04:25:17.220Z,38.87919463087248
2024-03-09T04:28:37.934Z,38.75167785234899
2024-03-09T04:38:17.697Z,38.785234899328856
2024-03-09T04:41:37.920Z,38.42953020134228
2024-03-09T04:44:57.477Z,38.711409395973156
2024-03-09T05:09:20.374Z,38.52348993288591
2024-03-09T05:12:40.608Z,38.20134228187919
2024-03-09T05:16:13.370Z,38.14093959731544
2024-03-09T05:28:51.305Z,37.58389261744966
2024-03-09T05:32:10.757Z,38.19463087248322
2024-03-09T05:35:31.104Z,37.02684563758389
2024-03-09T05:38:50.448Z,36.691275167785236
2024-03-09T05:42:10.549Z,37.46308724832215
2024-03-09T05:45:31.586Z,37.18120805369127
2024-03-09T05:48:51.559Z,38.51006711409396
2024-03-09T05:52:11.487Z,36.77852348993289
2024-03-09T05:55:32.073Z,36.91275167785235
2024-03-09T05:58:52.247Z,36.77852348993289
2024-03-09T06:04:12.646Z,36.442953020134226
2024-03-09T06:10:13.176Z,36.38255033557047
2024-03-09T06:13:33.359Z,36.49664429530201
2024-03-09T06:17:39.682Z,38.060402684563755
2024-03-09T06:20:59.607Z,36.65771812080537
2024-03-09T06:24:19.433Z,37.651006711409394
2024-03-09T06:27:40.176Z,36.946308724832214
2024-03-09T06:31:14.402Z,36.48322147651007
2024-03-09T06:34:34.869Z,35.7248322147651
2024-03-09T06:37:54.648Z,37.80536912751678
2024-03-09T06:41:26.305Z,36.77181208053691
2024-03-09T06:46:37.190Z,36.48322147651007
2024-03-09T06:56:16.629Z,37.30201342281879
2024-03-09T07:00:24.898Z,37.23489932885906
2024-03-09T07:03:44.366Z,36.42953020134228
2024-03-09T07:08:56.209Z,37.81208053691275
2024-03-09T07:14:15.301Z,36.83892617449664
2024-03-09T07:17:36.351Z,36.92617449664429
2024-03-09T07:22:46.901Z,36.04026845637584
2024-03-09T07:26:06.241Z,38.75167785234899
2024-03-09T07:29:26.240Z,36.946308724832214
2024-03-09T07:32:46.880Z,36.41610738255034
2024-03-09T07:36:07.000Z,36.47651006711409
2024-03-09T07:39:27.274Z,35.90604026845637
2024-03-09T07:42:47.231Z,35.07382550335571
2024-03-09T07:46:07.378Z,35.85906040268456
2024-03-09T07:49:28.463Z,35.65771812080537
2024-03-09T07:52:48.938Z,36.76510067114094
2024-03-09T07:56:11.223Z,35.65771812080537
2024-03-09T08:08:05.066Z,35.442953020134226
2024-03-09T08:21:35.553Z,35.77181208053691
2024-03-09T08:24:56.904Z,34.691275167785236
2024-03-09T08:28:17.511Z,35.33557046979866
2024-03-09T08:39:51.976Z,34.10738255033557
2024-03-09T08:43:11.704Z,32.79194630872483
2024-03-09T08:46:31.992Z,33.8255033557047
2024-03-09T08:49:52.075Z,33.53691275167785
2024-03-09T08:53:13.209Z,34.5503355704698
2024-03-09T08:59:49.673Z,32.20134228187919
2024-03-09T09:03:09.736Z,31.845637583892618
2024-03-09T09:06:30.364Z,31.590604026845636
2024-03-09T09:17:37.898Z,30.83221476510067
2024-03-09T09:20:57.986Z,30.74496644295302
2024-03-09T09:27:11.224Z,29.892617449664428
2024-03-09T09:31:45.037Z,30.25503355704698
2024-03-09T09:35:04.481Z,29.79194630872483
2024-03-09T09:38:24.447Z,30.12751677852349
2024-03-09T09:41:44.609Z,29.899328859060404
2024-03-09T09:45:04.262Z,29.006711409395972
2024-03-09T09:48:24.229Z,28.83221476510067
2024-03-09T09:51:47.182Z,28.87248322147651
2024-03-09T09:56:57.010Z,28.70469798657718
2024-03-09T10:01:46.640Z,28.13422818791946
2024-03-09T10:05:06.608Z,28.315436241610737
2024-03-09T10:08:26.783Z,28.604026845637584
2024-03-09T10:11:47.687Z,29.818791946308725
2024-03-09T10:15:06.977Z,29.530201342281877
2024-03-09T10:18:28.089Z,27.369127516778523
2024-03-09T10:22:25.684Z,27.36241610738255
2024-03-09T10:27:53.378Z,27.0
2024-03-09T10:35:17.673Z,27.503355704697988
2024-03-09T10:43:43.275Z,27.08053691275168
2024-03-09T10:48:48.465Z,26.946308724832214
2024-03-09T10:52:08.339Z,27.248322147651006
2024-03-09T10:55:29.523Z,27.328859060402685
2024-03-09T11:02:08.672Z,26.953020134228186
2024-03-09T11:05:29.403Z,25.449664429530202
2024-03-09T11:08:49.565Z,25.389261744966444
2024-03-09T11:12:09.632Z,25.80536912751678
2024-03-09T11:17:22.299Z,26.187919463087248
2024-03-09T11:20:42.211Z,27.523489932885905
2024-03-09T11:24:02.185Z,26.731543624161073
2024-03-09T11:27:22.356Z,26.288590604026847
2024-03-09T11:37:45.800Z,27.006711409395972
2024-03-09T11:41:05.815Z,26.59731543624161
2024-03-09T11:44:46.207Z,26.778523489932887
2024-03-09T11:48:12.223Z,26.825503355704697
2024-03-09T11:52:07.230Z,26.70469798657718
2024-03-09T11:55:44.664Z,26.483221476510067
2024-03-09T11:59:25.566Z,26.40268456375839
2024-03-09T12:03:36.976Z,28.040268456375838
2024-03-09T12:07:25.468Z,27.36241610738255
2024-03-09T12:16:37.381Z,28.583892617449663
2024-03-09T12:19:57.850Z,27.664429530201343
2024-03-09T12:23:18.886Z,28.711409395973153
2024-03-09T12:29:17.725Z,31.28187919463087
2024-03-09T12:32:39.380Z,30.74496644295302
2024-03-09T12:36:00.696Z,30.416107382550337
2024-03-09T12:39:22.232Z,30.543624161073826
2024-03-09T12:42:45.330Z,31.40268456375839
2024-03-09T12:47:40.999Z,30.973154362416107
2024-03-09T12:51:01.284Z,31.42953020134228
2024-03-09T12:54:22.413Z,31.13422818791946
2024-03-09T12:57:42.843Z,30.78523489932886
2024-03-09T13:01:03.888Z,31.08724832214765
2024-03-09T13:04:28.609Z,29.838926174496645
2024-03-09T13:07:57.029Z,28.563758389261746
2024-03-09T13:11:19.790Z,28.25503355704698
2024-03-09T13:14:49.756Z,28.456375838926174
2024-03-09T13:18:11.673Z,26.91946308724832
2024-03-09T13:21:35.819Z,27.369127516778523
2024-03-09T13:32:06.458Z,27.738255033557046
2024-03-09T13:35:27.480Z,29.604026845637584
2024-03-09T13:38:49.764Z,27.040268456375838
2024-03-09T13:42:11.576Z,27.14765100671141
2024-03-09T13:45:33.007Z,27.033557046979865
2024-03-09T13:48:56.076Z,26.697986577181208
2024-03-09T13:52:19.641Z,27.34228187919463
2024-03-09T13:55:44.657Z,25.825503355704697
2024-03-09T13:59:08.810Z,26.053691275167786
2024-03-09T14:02:36.503Z,24.583892617449663
2024-03-09T14:06:00.493Z,26.22818791946309
2024-03-09T14:14:40.659Z,25.590604026845636
2024-03-09T14:18:05.663Z,25.70469798657718
2024-03-09T14:21:29.843Z,25.073825503355703
2024-03-09T14:27:40.823Z,24.86577181208054
2024-03-09T14:31:02.193Z,25.523489932885905
2024-03-09T14:34:24.640Z,25.268456375838927
2024-03-09T14:37:47.477Z,24.604026845637584
2024-03-09T14:41:11.976Z,25.100671140939596
2024-03-09T14:44:34.457Z,24.187919463087248
2024-03-09T14:47:56.794Z,25.181208053691275
2024-03-09T14:55:56.994Z,24.993288590604028
2024-03-09T14:59:22.530Z,25.08724832214765
2024-03-09T15:11:26.533Z,26.2751677852349
2024-03-09T15:14:51.282Z,26.436241610738254
2024-03-09T15:18:14.658Z,26.536912751677853
2024-03-09T15:21:39.610Z,28.033557046979865
2024-03-09T15:25:05.455Z,27.516778523489933
2024-03-09T15:28:28.685Z,27.308724832214764
2024-03-09T15:33:07.751Z,28.738255033557046
2024-03-09T15:39:19.785Z,29.28187919463087
2024-03-09T15:42:43.240Z,29.651006711409394
2024-03-09T15:46:17.802Z,29.86577181208054
2024-03-09T15:49:40.934Z,29.19463087248322
2024-03-09T15:53:03.976Z,29.671140939597315
2024-03-09T15:59:07.278Z,29.543624161073826
2024-03-09T16:04:34.016Z,30.13422818791946
2024-03-09T16:10:17.318Z,31.13422818791946
2024-03-09T16:13:40.501Z,31.604026845637584
2024-03-09T16:17:03.161Z,30.496644295302012
2024-03-09T16:20:26.082Z,30.671140939597315
2024-03-09T16:23:49.157Z,31.268456375838927
2024-03-09T16:29:23.964Z,30.946308724832214
2024-03-09T16:32:46.978Z,31.416107382550337
2024-03-09T16:36:12.101Z,34.31543624161074
2024-03-09T16:40:04.933Z,31.543624161073826
2024-03-09T16:43:32.405Z,31.946308724832214
2024-03-09T16:46:57.625Z,33.18120805369127
2024-03-09T16:50:21.909Z,32.59060402684564
2024-03-09T16:53:46.760Z,31.23489932885906
2024-03-09T16:57:09.609Z,30.906040268456376
2024-03-09T17:00:32.724Z,30.006711409395972
2024-03-09T17:03:57.288Z,29.93288590604027
2024-03-09T17:07:19.295Z,30.42281879194631
2024-03-09T17:13:48.688Z,31.80536912751678
2024-03-09T17:17:10.709Z,31.671140939597315
2024-03-09T17:25:02.922Z,31.993288590604028
2024-03-09T17:31:30.866Z,32.95973154362416
2024-03-09T17:34:55.176Z,32.422818791946305
2024-03-09T17:38:18.680Z,33.61073825503356
2024-03-09T17:41:40.083Z,31.812080536912752
2024-03-09T17:45:00.546Z,32.38926174496644
2024-03-09T17:57:03.245Z,32.48322147651007
2024-03-09T18:18:45.838Z,34.68456375838926
2024-03-09T18:22:07.128Z,34.87248322147651
2024-03-09T18:25:27.706Z,33.577181208053695
2024-03-09T18:28:48.740Z,33.8255033557047
2024-03-09T18:34:23.113Z,33.32214765100671
2024-03-09T18:37:43.517Z,32.671140939597315
2024-03-09T18:45:25.535Z,32.79865771812081
2024-03-09T18:48:46.289Z,31.959731543624162
2024-03-09T18:52:06.636Z,31.550335570469798
2024-03-09T18:55:27.173Z,32.76510067114094
2024-03-09T18:58:47.688Z,32.53691275167785
2024-03-09T19:02:07.830Z,33.993288590604024
2024-03-09T19:08:11.791Z,31.966442953020135
2024-03-09T19:11:31.847Z,32.993288590604024
2024-03-09T19:14:51.709Z,33.20134228187919
2024-03-09T19:29:59.088Z,32.88590604026846
2024-03-09T19:33:19.953Z,33.651006711409394
2024-03-09T19:36:40.051Z,32.22147651006711
2024-03-09T19:40:01.126Z,32.86577181208054
2024-03-09T19:43:22.421Z,49.25503355704698
2024-03-09T19:46:42.684Z,44.36241610738255
2024-03-09T19:50:03.405Z,38.993288590604024
2024-03-09T19:53:23.474Z,43.09395973154363
2024-03-09T19:56:44.109Z,54.85906040268456
2024-03-09T20:00:04.446Z,85.36241610738254
2024-03-09T20:03:25.465Z,40.852348993288594
2024-03-09T20:06:45.819Z,41.4496644295302
2024-03-09T20:15:44.297Z,44.919463087248324
2024-03-09T20:19:31.604Z,41.033557046979865
2024-03-09T20:22:52.829Z,45.671140939597315
2024-03-09T20:27:36.031Z,49.40939597315436
2024-03-09T20:30:56.454Z,41.68456375838926
2024-03-09T20:34:47.429Z,37.20805369127517
2024-03-09T20:38:09.525Z,33.87919463087248
2024-03-09T20:43:53.024Z,52.852348993288594
2024-03-09T20:47:12.898Z,45.38255033557047
2024-03-09T20:50:34.095Z,39.013422818791945
2024-03-09T20:53:54.516Z,38.19463087248322
2024-03-09T20:57:16.537Z,38.671140939597315
2024-03-09T21:00:37.987Z,37.10738255033557
2024-03-09T21:05:50.949Z,37.09395973154363
2024-03-09T21:37:51.603Z,33.557046979865774
2024-03-09T21:41:11.783Z,33.651006711409394
2024-03-09T21:45:22.861Z,32.85906040268456
2024-03-09T21:48:43.255Z,33.25503355704698
2024-03-09T21:52:04.570Z,31.328859060402685
2024-03-09T21:57:02.009Z,33.758389261744966
2024-03-09T22:00:24.910Z,31.65771812080537
2024-03-09T22:03:46.139Z,31.79194630872483
2024-03-09T22:07:06.007Z,32.785234899328856
2024-03-09T22:13:32.701Z,33.355704697986575
2024-03-09T22:16:53.477Z,33.060402684563755
2024-03-09T22:20:13.834Z,32.7248322147651
2024-03-09T22:23:35.294Z,33.47651006711409
2024-03-09T22:26:56.253Z,32.26845637583892
2024-03-09T22:30:18.196Z,32.04697986577181
2024-03-09T22:33:39.978Z,31.120805369127517
2024-03-09T22:37:01.546Z,32.59060402684564
2024-03-09T22:40:22.417Z,31.953020134228186
2024-03-09T22:43:43.855Z,31.825503355704697
2024-03-09T22:47:04.929Z,31.42953020134228
2024-03-09T22:50:35.014Z,32.29530201342282
2024-03-09T22:57:01.035Z,32.88590604026846
2024-03-09T23:00:35.855Z,32.84563758389262
2024-03-09T23:03:56.479Z,31.63758389261745
2024-03-09T23:07:16.409Z,32.8255033557047
2024-03-09T23:11:13.833Z,33.16107382550336
2024-03-09T23:14:34.961Z,33.624161073825505
2024-03-09T23:17:56.115Z,32.74496644295302
2024-03-09T23:25:31.306Z,33.50335570469799
2024-03-09T23:31:18.219Z,33.81879194630873
2024-03-09T23:34:38.877Z,33.97315436241611
2024-03-09T23:37:58.998Z,33.18791946308725
2024-03-09T23:41:21.597Z,34.06711409395973
2024-03-09T23:48:16.506Z,32.711409395973156
2024-03-09T23:53:22.643Z,33.5503355704698
2024-03-09T23:56:43.340Z,31.315436241610737
